Tiempo atmosférico en la estación meteorológica de Briviesca, Burgos (730 m.)



Fecha
DESCASC
Temp. máxima en grados centígrados (hora)
DESCASC
Temp. mínima en grados centígrados (hora)
DESCASC
Temp. media en grados centígrados
DESCASC
Racha de viento máxima en m/sg (hora)
DESCASC
Velocidad máxima media en intervalos de 10 minutos(hora)
DESCASC
Precipitaciones diarias en mm
DESCASC
Precipitaciones de 00:00 a 06:00 en mm
DESCASC
Precipitaciones de 06:00 a 12:00 en mm
DESCASC
Precipitaciones de 12:00 a 18:00 en mm
DESCASC
Precipitaciones de 18:00 a 24:00 en mm
DESCASC
08-12-2019 7.9 (19:40) 1.9 (06:30) 4.9 7.78 (12:40) 4.72 (09:20) 2 0 0 2 0
07-12-2019 11.9 (15:30) 0.4 (08:50) 6.1 4.72 (17:20) 3.61 (16:50) 0 0 0 0 0
06-12-2019 11.1 (15:00) 0 (09:00) 5.6 3.89 (02:30) 2.78 (17:50) 0 0 0 0 0
05-12-2019 9.8 (15:00) 2.9 (00:00) 6.4 8.89 (15:40) 5.83 (15:30) 0 0 0 0 0
04-12-2019 9.5 (14:40) -1.9 (-00:0) 3.8 7.22 (23:40) 4.17 (17:00) 0 0 0 0 0
03-12-2019 4.4 (13:40) -0.7 (-00:0) 1.9 7.5 (13:50) 5.83 (13:50) 0.4 0.2 0.2 0 0
02-12-2019 7 (11:10) 3.5 (00:00) 5.3 8.06 (16:10) 5.83 (16:10) 0.6 0 0.4 0.2 0
01-12-2019 9.3 (12:20) 5.2 (00:00) 7.3 8.06 (02:00) 5 (02:00) 0.4 0 0.4 0 0
30-11-2019 13.5 (12:00) 5.6 (00:00) 9.5 15 (11:40) 10.56 (11:30) 10 0 0.6 9.4 0
29-11-2019 14.8 (14:40) 6.6 (00:00) 10.7 14.17 (00:10) 9.44 (00:20) 0 0 0 0 0
28-11-2019 11.7 (16:10) 9.2 (00:00) 10.4 14.44 (01:30) 9.72 (13:00) 1 0 0 0 1
27-11-2019 10.4 (00:00) 8.1 (00:00) 9.3 18.33 (00:20) 11.39 (01:00) 3.8 0 0 3.4 0.4
26-11-2019 15.2 (16:50) 10 (00:00) 12.6 20.83 (20:30) 12.22 (18:20) 2.4 0 0.4 0 2
25-11-2019 13.7 (14:40) 8 (00:00) 10.8 12.22 (06:40) 7.5 (14:00) 0 0 0 0 0
24-11-2019 8.8 (14:00) 2.8 (00:00) 5.8 12.78 (16:00) 8.06 (17:50) 0 0 0 0 0
23-11-2019 9.1 (13:50) 4.7 (00:00) 6.9 17.5 (04:00) 11.67 (02:40) 1.2 0.6 0.6 0 0
22-11-2019 12.3 (13:00) 4 (00:00) 8.2 15.83 (19:20) 10.28 (23:40) 2.8 0.6 0.4 1.8 0
21-11-2019 10.2 (15:20) 3.8 (00:00) 7 11.39 (11:20) 7.78 (11:20) 0.4 0.2 0.2 0 0
20-11-2019 6 (23:20) 0.8 (00:00) 3.4 8.33 (20:20) 5.83 (16:20) 0 0 0 0 0
19-11-2019 8.5 (14:00) -0.2 (00:00) 4.1 8.33 (14:50) 5.28 (16:40) 0 0 0 0 0
18-11-2019 7 (15:30) 2.1 (00:00) 4.5 8.61 (14:30) 5.83 (14:30) 0.2 0.2 0 0 0
17-11-2019 6.6 (13:20) 2.4 (00:00) 4.5 10.83 (12:10) 5.83 (12:10) 0.8 0 0 0 0.8
16-11-2019 7.4 (15:40) 0.1 (00:00) 3.8 10 (10:00) 5.28 (10:00) 0.2 0 0.2 0 0
15-11-2019 3.4 (13:50) 0.7 (00:00) 2.1 10.28 (09:10) 6.39 (07:40) 19.2 2.2 9.6 3.6 3.8
14-11-2019 8.3 (00:00) 0.9 (00:00) 4.6 18.33 (12:30) 10.28 (13:30) 8 4.6 2.8 0.4 0.2
13-11-2019 11.1 (14:20) 6.7 (00:00) 8.9 16.11 (23:10) 11.11 (23:40) 7.2 7 0.2 0 0
12-11-2019 10.5 (14:40) 4.1 (00:00) 7.3 10 (15:50) 6.39 (15:50) 2.2 0 0 0.8 1.4

Gráficas

Temp. máximas Temp. mínimas Temp. medias Precipitaciones Rachas de viento máximas Velocidades máximas media en intervalos de 10 minutos

Datos horarios

Fecha y hora oficial Temperatura (ºC) Velocidad del viento (km/h) Dirección del viento Racha (km/h) Dirección de racha Precipitación (mm) Presión (hPa) Tendencia (hPa) Humedad (%)
2019-12-11 23:00:00 4.9 16 Oeste 36 Oeste 0 -- -- 85
2019-12-11 22:00:00 5 9 Oeste 34 Sudoeste 0 -- -- 82
2019-12-11 21:00:00 5.1 13 Oeste 36 Oeste 0 -- -- 80
2019-12-11 20:00:00 5.3 26 Sudoeste 42 Oeste 0 -- -- 78
2019-12-11 19:00:00 5.8 22 Sudoeste 42 Oeste 0 -- -- 77
2019-12-11 18:00:00 6.6 30 Sudoeste 44 Sudoeste 0 -- -- 76
2019-12-11 17:00:00 7.7 14 Sudoeste 27 Sudoeste 0 -- -- 80
2019-12-11 16:00:00 7.7 17 Oeste 30 Oeste 0 -- -- 78
2019-12-11 15:00:00 7.2 16 Sudoeste 27 Sudoeste 0 -- -- 81
2019-12-11 14:00:00 6.9 9 Oeste 19 Oeste 0 -- -- 80
2019-12-11 13:00:00 6.4 11 Oeste 23 Oeste 0 -- -- 84
2019-12-11 12:00:00 5.8 10 Noroeste 17 Oeste 0.4 -- -- 90
2019-12-11 11:00:00 5.2 7 Oeste 16 Sudoeste 0 -- -- 95
2019-12-11 10:00:00 4.1 14 Sudoeste 30 Sudoeste 0.4 -- -- 95
2019-12-11 09:00:00 4.6 17 Sudoeste 27 Sudoeste 1 -- -- 92
2019-12-11 08:00:00 4.3 7 Sudoeste 29 Noroeste 0.4 -- -- 95
2019-12-11 07:00:00 3.8 11 Noroeste 19 Noroeste 0 -- -- 95
2019-12-11 06:00:00 3.1 3 Nordeste 11 Norte 0 -- -- 91
2019-12-11 05:00:00 5.2 4 Oeste 25 Oeste 0 -- -- 79
2019-12-11 04:00:00 5.9 8 Oeste 26 Oeste 0 -- -- 76
2019-12-11 03:00:00 6 11 Sudoeste 24 Sudoeste 0 -- -- 72
2019-12-11 02:00:00 6.6 13 Sudoeste 27 Oeste 0 -- -- 67
2019-12-11 01:00:00 6.7 15 Sudoeste 30 Sudoeste 0 -- -- 67
2019-12-11 00:00:00 5.7 9 Oeste 21 Oeste 0 -- -- 75
2019-12-10 23:00:00 5.1 4 Oeste 21 Oeste 0 -- -- 87
2019-12-10 22:00:00 6 9 Oeste 24 Oeste 0 -- -- 84
2019-12-10 21:00:00 5.1 0 Calma 9 Noroeste 0 -- -- 93
2019-12-10 20:00:00 5.7 3 Norte 10 Nordeste 0 -- -- 91
2019-12-10 19:00:00 6.4 3 Nordeste 16 Sudoeste 0 -- -- 84
2019-12-10 18:00:00 7.3 4 Norte 21 Sudoeste 0 -- -- 80
2019-12-10 17:00:00 8.7 7 Sudoeste 18 Sudoeste 0 -- -- 71
2019-12-10 16:00:00 9.7 13 Sudoeste 26 Sudoeste 0 -- -- 70
2019-12-10 15:00:00 9.6 17 Sudoeste 22 Sudoeste 0 -- -- 73
2019-12-10 14:00:00 9.2 12 Oeste 21 Oeste 0 -- -- 70
2019-12-10 13:00:00 8.6 9 Oeste 30 Sudoeste 0 -- -- 79
2019-12-10 12:00:00 6.5 14 Sudoeste 23 Sudoeste 0 -- -- 87
2019-12-10 11:00:00 4.2 4 Noroeste 8 Oeste 0 -- -- 95
2019-12-10 10:00:00 1.4 0 Calma 4 Oeste 0 -- -- 100
2019-12-10 09:00:00 0.1 0 Calma 6 Oeste 0 -- -- 99
2019-12-10 08:00:00 0.8 4 Sudoeste 12 Sur 0 -- -- 98
2019-12-10 07:00:00 1.4 7 Sur 14 Sur 0 -- -- 98
2019-12-10 06:00:00 1.6 7 Sur 13 Sur 0 -- -- 96
2019-12-10 05:00:00 2.2 7 Sur 14 Sudeste 0 -- -- 96
2019-12-10 04:00:00 3.2 8 Sur 12 Sur 0 -- -- 96
2019-12-10 03:00:00 3.8 7 Sur 15 Sur 0 -- -- 94
2019-12-10 02:00:00 4.6 8 Sur 16 Sur 0 -- -- 93
2019-12-10 01:00:00 4.7 7 Sur 13 Sur 0 -- -- 92
2019-12-10 00:00:00 4.9 4 Sur 8 Sudoeste 0 -- -- 92
2019-12-09 23:00:00 5.9 0 Calma 6 Norte 0 -- -- 89
2019-12-09 22:00:00 6.3 0 Calma 4 Oeste 0 -- -- 88
2019-12-09 21:00:00 6.9 0 Calma 10 Oeste 0 -- -- 85
2019-12-09 20:00:00 7.5 10 Noroeste 17 Noroeste 0 -- -- 81
2019-12-09 19:00:00 7.5 5 Oeste 15 Oeste 0 -- -- 79
2019-12-09 18:00:00 7.6 5 Oeste 39 Noroeste 0 -- -- 79
2019-12-09 17:00:00 8.3 17 Noroeste 30 Noroeste 0 -- -- 75
2019-12-09 16:00:00 8.7 17 Noroeste 40 Noroeste 0 -- -- 76
2019-12-09 15:00:00 9.1 23 Noroeste 38 Noroeste 0 -- -- 73
2019-12-09 14:00:00 9.3 16 Noroeste 31 Noroeste 0 -- -- 76
2019-12-09 13:00:00 8.8 9 Oeste 27 Noroeste 0 -- -- 77
2019-12-09 12:00:00 8.8 15 Noroeste 34 Oeste 0 -- -- 72
2019-12-09 11:00:00 8.5 17 Oeste 28 Oeste 0 -- -- 73
2019-12-09 10:00:00 4.8 15 Sudoeste 23 Sudoeste 0 -- -- 88
2019-12-09 09:00:00 3 15 Sudoeste 29 Sudoeste 0 -- -- 92
2019-12-09 08:00:00 3.4 19 Sudoeste 26 Sudoeste 0 -- -- 94
2019-12-09 07:00:00 3.7 13 Oeste 23 Sudoeste 0 -- -- 94
2019-12-09 06:00:00 2.7 4 Norte 14 Sudoeste 0 -- -- 97
2019-12-09 05:00:00 4.5 14 Sudoeste 31 Sudoeste 0 -- -- 90
2019-12-09 04:00:00 4.8 18 Sudoeste 25 Sudoeste 0 -- -- 93
2019-12-09 03:00:00 5.6 11 Sudoeste 21 Sudoeste 0 -- -- 92
2019-12-09 02:00:00 6.2 11 Oeste 21 Sudoeste 0 -- -- 95
2019-12-09 01:00:00 6.3 7 Oeste 14 Sudoeste 0 -- -- 99
2019-12-09 00:00:00 5.6 0 Calma 10 Sudoeste 0 -- -- 100
2019-12-08 23:00:00 5.6 11 Sudoeste 13 Oeste 0 -- -- 100
2019-12-08 22:00:00 5.9 9 Sudoeste 18 Sudoeste 0 -- -- 98
2019-12-08 21:00:00 6.8 7 Sudoeste 11 Sudoeste 0 -- -- 97
2019-12-08 20:00:00 7.8 0 Calma 12 Sudoeste 0 -- -- 98
2019-12-08 19:00:00 7.8 9 Sudoeste 15 Sudoeste 0 -- -- 97
2019-12-08 18:00:00 7.7 6 Oeste 22 Sudoeste 0 -- -- 96
2019-12-08 17:00:00 7.7 12 Sudoeste 20 Sudoeste 0.2 -- -- 97
2019-12-08 16:00:00 7.6 4 Noroeste 13 Sudoeste 0 -- -- 98
2019-12-08 15:00:00 7.5 3 Noroeste 12 Noroeste 0.2 -- -- 99
2019-12-08 14:00:00 6.9 5 Norte 15 Noroeste 0.6 -- -- 100
2019-12-08 13:00:00 7.5 10 Oeste 28 Sudoeste 1 -- -- 95
2019-12-08 12:00:00 6.8 6 Norte 14 Noroeste 0 -- -- 97
2019-12-08 11:00:00 5.8 6 Norte 11 Norte 0 -- -- 99
2019-12-08 10:00:00 6.1 9 Noroeste 26 Sudoeste 0 -- -- 95
2019-12-08 09:00:00 5.8 10 Sudoeste 21 Sudoeste 0 -- -- 100
2019-12-08 08:00:00 4.3 5 Norte 9 Norte 0 -- -- 100
2019-12-08 07:00:00 2.6 3 Nordeste 6 Nordeste 0 -- -- 100
2019-12-08 06:00:00 2.5 0 Calma 6 Nordeste 0 -- -- 100
2019-12-08 05:00:00 2.7 4 Nordeste 9 Este 0 -- -- 100
2019-12-08 04:00:00 3.1 6 Nordeste 8 Nordeste 0 -- -- 100
2019-12-08 03:00:00 2.9 4 Nordeste 6 Este 0 -- -- 100
2019-12-08 02:00:00 2.9 0 Calma 8 Norte 0 -- -- 100
2019-12-08 01:00:00 3.5 4 Nordeste 7 Nordeste 0 -- -- 100
2019-12-08 00:00:00 3.5 3 Nordeste 7 Nordeste 0 -- -- 100
2019-12-07 23:00:00 3.4 3 Nordeste 8 Este 0 -- -- 100
2019-12-07 22:00:00 3.7 7 Este 9 Este 0 -- -- 100
2019-12-07 21:00:00 4 2 Norte 4 Nordeste 0 -- -- 96
2019-12-07 20:00:00 5.7 0 Calma 14 Sudoeste 0 -- -- 91
2019-12-07 19:00:00 7 10 Sudoeste 15 Sudoeste 0 -- -- 88
2019-12-07 18:00:00 8.1 12 Sudoeste 17 Sudoeste 0 -- -- 85
2019-12-07 17:00:00 10.2 11 Sudoeste 17 Sudoeste 0 -- -- 77
2019-12-07 16:00:00 11.5 8 Oeste 15 Sudoeste 0 -- -- 68
2019-12-07 15:00:00 11.7 5 Oeste 14 Oeste 0 -- -- 69
2019-12-07 14:00:00 9.7 5 Norte 10 Norte 0 -- -- 87
2019-12-07 13:00:00 8.4 5 Nordeste 9 Norte 0 -- -- 89
2019-12-07 12:00:00 7.6 5 Norte 8 Nordeste 0 -- -- 92
2019-12-07 11:00:00 5.2 2 Nordeste 6 Nordeste 0 -- -- 99
2019-12-07 10:00:00 2.5 3 Este 6 Nordeste 0 -- -- 100
2019-12-07 09:00:00 0.6 0 Calma 3 Oeste 0 -- -- 100
2019-12-07 08:00:00 1 0 Calma 3 Oeste 0 -- -- 100
2019-12-07 07:00:00 1.3 0 Calma 4 Nordeste 0 -- -- 98
2019-12-07 06:00:00 2.7 4 Nordeste 11 Sur 0 -- -- 97
2019-12-07 05:00:00 2.4 2 Sudoeste 5 Sur 0 -- -- 100
2019-12-07 04:00:00 3 0 Calma 4 Sur 0 -- -- 98
2019-12-07 03:00:00 4.8 0 Calma 9 Sur 0 -- -- 97
2019-12-07 02:00:00 5.4 6 Sur 10 Sur 0 -- -- 97
2019-12-07 01:00:00 4.9 0 Calma 8 Sur 0 -- -- 97
2019-12-07 00:00:00 4.6 0 Calma 13 Sur 0 -- -- 97
2019-12-06 23:00:00 4.1 5 Sur 10 Sur 0 -- -- 100
2019-12-06 22:00:00 4.8 6 Sur 13 Sur 0 -- -- 95
2019-12-06 21:00:00 5.2 5 Sur 11 Sur 0 -- -- 95
2019-12-06 20:00:00 4.9 0 Calma 4 Noroeste 0 -- -- 95
2019-12-06 19:00:00 6.8 2 Sudoeste 10 Sudeste 0 -- -- 91
2019-12-06 18:00:00 8.4 9 Sudeste 13 Sudeste 0 -- -- 87
2019-12-06 17:00:00 10.3 0 Calma 6 Sudeste 0 -- -- 83
2019-12-06 16:00:00 10.6 0 Calma 6 Norte 0 -- -- 78
2019-12-06 15:00:00 11.1 3 Nordeste 13 Norte 0 -- -- 77
2019-12-06 14:00:00 10.2 6 Norte 13 Norte 0 -- -- 83
2019-12-06 13:00:00 8.2 3 Sur 5 Sur 0 -- -- 85
2019-12-06 12:00:00 4.3 0 Calma 5 Norte 0 -- -- 100
2019-12-06 11:00:00 2.9 3 Noroeste 6 Norte 0 -- -- 100
2019-12-06 10:00:00 2.3 2 Sudoeste 8 Sur 0 -- -- 100
2019-12-06 09:00:00 0 2 Sudoeste 8 Sudoeste 0 -- -- 100
2019-12-06 08:00:00 0.6 7 Sudoeste 13 Sur 0 -- -- 100
2019-12-06 07:00:00 1.7 7 Sudoeste 10 Sudoeste 0 -- -- 100
2019-12-06 06:00:00 1.9 5 Sudoeste 9 Sur 0 -- -- 100
2019-12-06 05:00:00 2 5 Sudoeste 9 Sur 0 -- -- 100
2019-12-06 04:00:00 1.9 7 Sur 13 Sudoeste 0 -- -- 100
2019-12-06 03:00:00 1.4 9 Sur 14 Sur 0 -- -- 100
2019-12-06 02:00:00 1.9 5 Sur 8 Sur 0 -- -- 100
2019-12-06 01:00:00 1.6 2 Norte 5 Noroeste 0 -- -- 99
2019-12-06 00:00:00 2.9 0 Calma 14 Sudeste 0 -- -- 95
2019-12-05 23:00:00 4.5 12 Sudeste 17 Sudeste 0 -- -- 95
2019-12-05 22:00:00 4.9 14 Sudeste 18 Sudeste 0 -- -- 94
2019-12-05 21:00:00 4.6 9 Sudeste 12 Este 0 -- -- 94
2019-12-05 20:00:00 5.4 9 Sudeste 14 Este 0 -- -- 91
2019-12-05 19:00:00 6.3 12 Este 19 Este 0 -- -- 88
2019-12-05 18:00:00 7.1 14 Este 24 Este 0 -- -- 83
2019-12-05 17:00:00 8.4 18 Este 26 Este 0 -- -- 79
2019-12-05 16:00:00 9.2 18 Este 32 Este 0 -- -- 75
2019-12-05 15:00:00 9.8 20 Este 29 Este 0 -- -- 71
2019-12-05 14:00:00 9 15 Este 26 Este 0 -- -- 78
2019-12-05 13:00:00 8 12 Este 19 Este 0 -- -- 83
2019-12-05 12:00:00 7.7 13 Este 21 Este 0 -- -- 85
2019-12-05 11:00:00 6.8 12 Este 21 Este 0 -- -- 84
2019-12-05 10:00:00 5.7 0 Calma 9 Nordeste 0 -- -- 94
2019-12-05 09:00:00 5.6 8 Nordeste 13 Nordeste 0 -- -- 94
2019-12-05 08:00:00 5.4 8 Nordeste 15 Nordeste 0 -- -- 95
2019-12-05 07:00:00 5.8 12 Nordeste 21 Norte 0 -- -- 89
2019-12-05 06:00:00 6.1 17 Nordeste 22 Nordeste 0 -- -- 90
2019-12-05 05:00:00 5.9 12 Nordeste 23 Norte 0 -- -- 93
2019-12-05 04:00:00 6.2 11 Nordeste 20 Norte 0 -- -- 93
2019-12-05 03:00:00 5.9 0 Calma 13 Este 0 -- -- 92
2019-12-05 02:00:00 6.3 11 Este 22 Nordeste 0 -- -- 89
2019-12-05 01:00:00 6 9 Nordeste 23 Nordeste 0 -- -- 91
2019-12-05 00:00:00 5.8 13 Nordeste 26 Nordeste 0 -- -- 93
2019-12-04 23:00:00 5.5 2 Este 6 Nordeste 0 -- -- 91
2019-12-04 22:00:00 5.1 5 Nordeste 10 Nordeste 0 -- -- 92
2019-12-04 21:00:00 4.4 2 Norte 14 Nordeste 0 -- -- 90
2019-12-04 20:00:00 3.9 10 Nordeste 17 Norte 0 -- -- 89
2019-12-04 19:00:00 4.9 11 Nordeste 16 Nordeste 0 -- -- 84
2019-12-04 18:00:00 5.9 6 Nordeste 18 Nordeste 0 -- -- 88
2019-12-04 17:00:00 8.1 15 Nordeste 20 Nordeste 0 -- -- 82
2019-12-04 16:00:00 9.5 5 Noroeste 10 Noroeste 0 -- -- 73
2019-12-04 15:00:00 9.5 0 Calma 9 Este 0 -- -- 72
2019-12-04 14:00:00 8.3 0 Calma 8 Sur 0 -- -- 78
2019-12-04 13:00:00 5.8 4 Sudoeste 7 Sur 0 -- -- 85
2019-12-04 12:00:00 4.1 5 Sur 7 Sur 0 -- -- 90
2019-12-04 11:00:00 1.5 5 Sur 9 Sur 0 -- -- 100
2019-12-04 10:00:00 -1 0 Calma 7 Sudoeste 0 -- -- 100
2019-12-04 09:00:00 -1.7 7 Sur 12 Sur 0 -- -- 100
2019-12-04 08:00:00 -1.9 8 Sur 12 Sur 0 -- -- 100
2019-12-04 07:00:00 -1.8 0 Calma 5 Nordeste 0 -- -- 100
2019-12-04 06:00:00 -1.6 3 Sudoeste 7 Sur 0 -- -- 100
2019-12-04 05:00:00 -1.8 0 Calma 5 Sudoeste 0 -- -- 100
2019-12-04 04:00:00 -1.5 0 Calma 6 Sudoeste 0 -- -- 100
2019-12-04 03:00:00 -1.6 0 Calma 2 Oeste 0 -- -- 100
2019-12-04 02:00:00 -1.5 0 Calma 2 Sudoeste 0 -- -- 100
2019-12-04 01:00:00 -1.2 0 Calma 2 Sudoeste 0 -- -- 99
2019-12-04 00:00:00 -0.7 0 Calma 3 Sudoeste 0 -- -- 99
2019-12-03 23:00:00 -0.4 0 Calma 3 Sur 0 -- -- 98
2019-12-03 22:00:00 0.1 0 Calma 5 Este 0 -- -- 96
2019-12-03 21:00:00 1 5 Este 7 Este 0 -- -- 94
2019-12-03 20:00:00 0.9 0 Calma 5 Este 0 -- -- 93
2019-12-03 19:00:00 2.6 2 Sudeste 11 Nordeste 0 -- -- 90
2019-12-03 18:00:00 2.9 6 Nordeste 14 Este 0 -- -- 88
2019-12-03 17:00:00 3.5 9 Nordeste 18 Nordeste 0 -- -- 86
2019-12-03 16:00:00 3.7 11 Nordeste 19 Este 0 -- -- 84
2019-12-03 15:00:00 4 15 Este 26 Este 0 -- -- 80
2019-12-03 14:00:00 4 17 Este 27 Nordeste 0 -- -- 77
2019-12-03 13:00:00 4.1 18 Este 25 Este 0 -- -- 79
2019-12-03 12:00:00 4 11 Nordeste 21 Este 0 -- -- 84
2019-12-03 11:00:00 3.4 6 Nordeste 10 Este 0 -- -- 92
2019-12-03 10:00:00 2.6 3 Este 5 Este 0 -- -- 97
2019-12-03 09:00:00 2.4 3 Nordeste 9 Este 0.2 -- -- 97
2019-12-03 08:00:00 2.4 6 Este 10 Nordeste 0 -- -- 96
2019-12-03 07:00:00 2.5 7 Este 15 Este 0 -- -- 95
2019-12-03 06:00:00 2.6 8 Nordeste 14 Nordeste 0 -- -- 94
2019-12-03 05:00:00 2.6 9 Nordeste 15 Nordeste 0 -- -- 95
2019-12-03 04:00:00 2.7 8 Este 11 Nordeste 0.2 -- -- 96
2019-12-03 03:00:00 3.1 8 Nordeste 19 Nordeste 0 -- -- 94
2019-12-03 02:00:00 3.1 4 Nordeste 9 Nordeste 0 -- -- 95
2019-12-03 01:00:00 3.2 7 Nordeste 17 Nordeste 0 -- -- 93
2019-12-03 00:00:00 3.5 10 Nordeste 18 Nordeste 0 -- -- 90
2019-12-02 23:00:00 3.6 13 Nordeste 22 Nordeste 0 -- -- 89
2019-12-02 22:00:00 3.7 8 Nordeste 15 Nordeste 0 -- -- 89
2019-12-02 21:00:00 3.6 9 Nordeste 18 Nordeste 0 -- -- 88
2019-12-02 20:00:00 3.7 11 Norte 19 Norte 0 -- -- 84
2019-12-02 19:00:00 3.9 10 Norte 27 Norte 0 -- -- 84
2019-12-02 18:00:00 4.4 15 Norte 27 Nordeste 0 -- -- 85
2019-12-02 17:00:00 5.3 16 Nordeste 29 Nordeste 0 -- -- 85
2019-12-02 16:00:00 6 18 Nordeste 27 Norte 0 -- -- 87
2019-12-02 15:00:00 6.6 14 Nordeste 28 Norte 0 -- -- 89
2019-12-02 14:00:00 6.5 16 Nordeste 22 Norte 0.2 -- -- 95
2019-12-02 13:00:00 6.5 13 Norte 22 Norte 0 -- -- 92
2019-12-02 12:00:00 6.8 8 Nordeste 22 Este 0 -- -- 88
2019-12-02 11:00:00 6.9 12 Este 19 Nordeste 0 -- -- 88
2019-12-02 10:00:00 5.9 4 Nordeste 19 Nordeste 0.2 -- -- 97
2019-12-02 09:00:00 5.6 10 Nordeste 17 Este 0.2 -- -- 97
2019-12-02 08:00:00 5.7 13 Este 17 Este 0 -- -- 94
2019-12-02 07:00:00 5.6 11 Este 21 Este 0 -- -- 94
2019-12-02 06:00:00 5.7 15 Este 20 Este 0 -- -- 95
2019-12-02 05:00:00 5.5 5 Nordeste 14 Nordeste 0 -- -- 95
2019-12-02 04:00:00 5.4 10 Nordeste 15 Nordeste 0 -- -- 96
2019-12-02 03:00:00 5.2 2 Norte 8 Nordeste 0 -- -- 96
2019-12-02 02:00:00 4.9 6 Nordeste 10 Norte 0 -- -- 97
2019-12-02 01:00:00 5.5 7 Norte 14 Norte 0 -- -- 93
2019-12-02 00:00:00 5.9 6 Norte 13 Noroeste 0 -- -- 94
2019-12-01 23:00:00 6.4 5 Norte 10 Norte 0 -- -- 95
2019-12-01 22:00:00 6.3 3 Norte 4 Norte 0 -- -- 97
2019-12-01 21:00:00 6.3 0 Calma 3 Sudeste 0 -- -- 95
2019-12-01 20:00:00 6.4 0 Calma 12 Este 0 -- -- 95
2019-12-01 19:00:00 6.6 9 Este 15 Este 0 -- -- 95
2019-12-01 18:00:00 6.6 9 Sudeste 15 Sudeste 0 -- -- 95
2019-12-01 17:00:00 7.5 9 Sudeste 15 Sudeste 0 -- -- 93
2019-12-01 16:00:00 8.3 10 Este 14 Norte 0 -- -- 92
2019-12-01 15:00:00 8.7 4 Norte 10 Norte 0 -- -- 80
2019-12-01 14:00:00 8.6 4 Norte 11 Norte 0 -- -- 83
2019-12-01 13:00:00 8.5 7 Norte 12 Nordeste 0 -- -- 86
2019-12-01 12:00:00 8.5 3 Norte 10 Norte 0 -- -- 89
2019-12-01 11:00:00 7.2 5 Norte 8 Norte 0 -- -- 92
2019-12-01 10:00:00 6.3 0 Calma 8 Sudoeste 0 -- -- 97
2019-12-01 09:00:00 5.7 0 Calma 6 Nordeste 0 -- -- 98
2019-12-01 08:00:00 5.6 0 Calma 13 Sudoeste 0.2 -- -- 96
2019-12-01 07:00:00 5.9 4 Sudoeste 19 Sudoeste 0.2 -- -- 95
2019-12-01 06:00:00 5.6 4 Sudoeste 14 Sudoeste 0 -- -- 94
2019-12-01 05:00:00 5.6 8 Sudoeste 23 Sudoeste 0 -- -- 93
2019-12-01 04:00:00 5.7 14 Sudoeste 23 Sudoeste 0 -- -- 93
2019-12-01 03:00:00 5.2 6 Sudoeste 22 Sudoeste 0 -- -- 94
2019-12-01 02:00:00 5.8 18 Sudoeste 29 Sudoeste 0 -- -- 93
2019-12-01 01:00:00 6.2 12 Sudoeste 22 Sudoeste 0 -- -- 93
2019-12-01 00:00:00 6.3 14 Sudoeste 24 Sudoeste 0 -- -- 93
2019-11-30 23:00:00 6.6 13 Sudoeste 27 Sudoeste 0 -- -- 91
2019-11-30 22:00:00 6.1 7 Oeste 14 Oeste 0 -- -- 93
2019-11-30 21:00:00 5.8 0 Calma 14 Sur 0 -- -- 93
2019-11-30 20:00:00 6.3 2 Sudeste 12 Norte 0 -- -- 92
2019-11-30 19:00:00 7.5 14 Sudoeste 33 Sudoeste 0 -- -- 88
2019-11-30 18:00:00 7.5 13 Sudoeste 25 Sudoeste 0.6 -- -- 91
2019-11-30 17:00:00 8.2 13 Oeste 41 Oeste 0.4 -- -- 89
2019-11-30 16:00:00 9.9 21 Oeste 34 Oeste 1 -- -- 90
2019-11-30 15:00:00 10.5 12 Oeste 44 Sudoeste 6 -- -- 94
2019-11-30 14:00:00 12.8 30 Sudoeste 49 Sudoeste 1.4 -- -- 94
2019-11-30 13:00:00 12.8 22 Sudoeste 51 Sudoeste 0 -- -- 91
2019-11-30 12:00:00 13.5 35 Sudoeste 54 Sudoeste 0 -- -- 85
2019-11-30 11:00:00 12.6 28 Sudoeste 48 Sudoeste 0.2 -- -- 91
2019-11-30 10:00:00 11.8 28 Sudoeste 42 Sudoeste 0.4 -- -- 94
2019-11-30 09:00:00 11.9 23 Sudoeste 40 Sudoeste 0 -- -- 91
2019-11-30 08:00:00 12.3 29 Sudoeste 42 Sudoeste 0 -- -- 90
2019-11-30 07:00:00 12.3 19 Sudoeste 39 Sudoeste 0 -- -- 92
2019-11-30 06:00:00 12 24 Sudoeste 35 Sudoeste 0 -- -- 95
2019-11-30 05:00:00 11.3 19 Sudoeste 34 Sudoeste 0 -- -- 97
2019-11-30 04:00:00 10.8 17 Sudoeste 25 Sudoeste 0 -- -- 97
2019-11-30 03:00:00 8.6 6 Sudoeste 19 Sur 0 -- -- 100
2019-11-30 02:00:00 7.4 3 Nordeste 5 Norte 0 -- -- 100
2019-11-30 01:00:00 6.8 0 Calma 6 Oeste 0 -- -- 99
2019-11-30 00:00:00 6.9 4 Sudoeste 6 Sur 0 -- -- 97
2019-11-29 23:00:00 7.1 3 Noroeste 11 Sur 0 -- -- 95
2019-11-29 22:00:00 8 4 Sur 9 Sur 0 -- -- 95
2019-11-29 21:00:00 7 0 Calma -- -- 0 -- -- 98
2019-11-29 20:00:00 7.1 0 Calma 0 Calma 0 -- -- 95
2019-11-29 19:00:00 8.6 0 Calma 6 Sudoeste 0 -- -- 91
2019-11-29 18:00:00 10.6 4 Sudoeste 14 Oeste 0 -- -- 82
2019-11-29 17:00:00 13 8 Oeste 20 Oeste 0 -- -- 72
2019-11-29 16:00:00 14.5 13 Oeste 22 Oeste 0 -- -- 67
2019-11-29 15:00:00 14.4 15 Oeste 24 Sudoeste 0 -- -- 66
2019-11-29 14:00:00 13.4 14 Oeste 19 Sudoeste 0 -- -- 70
2019-11-29 13:00:00 12.7 5 Nordeste 13 Norte 0 -- -- 82
2019-11-29 12:00:00 12.7 8 Norte 12 Norte 0 -- -- 84
2019-11-29 11:00:00 12.2 3 Sur 4 Sur 0 -- -- 86
2019-11-29 10:00:00 10.2 0 Calma 6 Oeste 0 -- -- 95
2019-11-29 09:00:00 10 2 Sudoeste 9 Oeste 0 -- -- 98
2019-11-29 08:00:00 10.3 0 Calma 9 Noroeste 0 -- -- 97
2019-11-29 07:00:00 10.7 4 Noroeste 23 Sudoeste 0 -- -- 93
2019-11-29 06:00:00 11.2 18 Sudoeste 23 Sudoeste 0 -- -- 90
2019-11-29 05:00:00 11.1 11 Sudoeste 18 Sudoeste 0 -- -- 92
2019-11-29 04:00:00 11.1 6 Oeste 16 Sudoeste 0 -- -- 93
2019-11-29 03:00:00 11.5 4 Sudoeste 29 Sudoeste 0 -- -- 91
2019-11-29 02:00:00 11.5 13 Oeste 40 Sudoeste 0 -- -- 92
2019-11-29 01:00:00 11.2 27 Sudoeste 51 Sudoeste 0 -- -- 94
2019-11-29 00:00:00 10.9 30 Sudoeste 46 Sudoeste 0 -- -- 95
2019-11-28 23:00:00 10.4 26 Sudoeste 44 Sudoeste 0 -- -- 96
2019-11-28 22:00:00 10.3 21 Sudoeste 36 Sudoeste 0 -- -- 97
2019-11-28 21:00:00 10.3 21 Sudoeste 32 Sudoeste 0.4 -- -- 97
2019-11-28 20:00:00 10.4 18 Sudoeste 42 Sudoeste 0.4 -- -- 95
2019-11-28 19:00:00 10.6 24 Sudoeste 38 Sudoeste 0.2 -- -- 92
2019-11-28 18:00:00 11.2 19 Sudoeste 41 Sudoeste 0 -- -- 87
2019-11-28 17:00:00 11.6 23 Sudoeste 45 Sudoeste 0 -- -- 85
2019-11-28 16:00:00 11.6 26 Sudoeste 45 Sudoeste 0 -- -- 85
2019-11-28 15:00:00 11.3 23 Sudoeste 41 Sudoeste 0 -- -- 87
2019-11-28 14:00:00 11.1 25 Sudoeste 44 Sudoeste 0 -- -- 88
2019-11-28 13:00:00 10.4 35 Sudoeste 47 Sudoeste 0 -- -- 94
2019-11-28 12:00:00 10.8 22 Sudoeste 46 Sudoeste 0 -- -- 90
2019-11-28 11:00:00 10.7 21 Sudoeste 40 Oeste 0 -- -- 91
2019-11-28 10:00:00 10.2 24 Sudoeste 48 Sudoeste 0 -- -- 93
2019-11-28 09:00:00 9.6 29 Sudoeste 46 Sudoeste 0 -- -- 96
2019-11-28 08:00:00 9.2 27 Sudoeste 49 Sudoeste 0 -- -- 96
2019-11-28 07:00:00 9.3 26 Sudoeste 41 Sudoeste 0 -- -- 95
2019-11-28 06:00:00 9.6 20 Sudoeste 36 Sudoeste 0 -- -- 91
2019-11-28 05:00:00 9.9 25 Sudoeste 52 Sudoeste 0 -- -- 87
2019-11-28 04:00:00 9.7 28 Sudoeste 46 Sudoeste 0 -- -- 88
2019-11-28 03:00:00 9.7 26 Sudoeste 52 Oeste 0 -- -- 87
2019-11-28 02:00:00 9.4 29 Sudoeste 52 Oeste 0 -- -- 89
2019-11-28 01:00:00 9.5 24 Sudoeste 46 Sudoeste 0 -- -- 86
2019-11-28 00:00:00 9.5 26 Sudoeste 52 Oeste 0 -- -- 86
2019-11-27 23:00:00 9.4 23 Sudoeste 48 Sudoeste 0 -- -- 86
2019-11-27 22:00:00 9.4 28 Sudoeste 49 Oeste 0 -- -- 88
2019-11-27 21:00:00 9.6 30 Sudoeste 49 Sudoeste 0 -- -- 87
2019-11-27 20:00:00 9.5 28 Sudoeste 41 Oeste 0 -- -- 89
2019-11-27 19:00:00 8.6 13 Sudoeste 28 Oeste 0.4 -- -- 95
2019-11-27 18:00:00 8.1 17 Oeste 37 Oeste 1.4 -- -- 92
2019-11-27 17:00:00 8.6 23 Oeste 40 Sudoeste 1.2 -- -- 89
2019-11-27 16:00:00 8.9 20 Sudoeste 41 Sudoeste 0.4 -- -- 93
2019-11-27 15:00:00 9.1 23 Sudoeste 49 Sudoeste 0.4 -- -- 91
2019-11-27 14:00:00 10 19 Sudoeste 45 Sudoeste 0 -- -- 82
2019-11-27 06:00:00 -- -- -- -- -- -- -- -- --
2019-11-27 05:00:00 -- -- -- -- -- -- -- -- --
2019-11-27 04:00:00 8.9 32 Sudoeste 47 Sudoeste 0 -- -- 83
2019-11-27 03:00:00 9.1 30 Sudoeste 53 Sudoeste 0 -- -- 82
2019-11-27 02:00:00 9.4 27 Oeste 65 Sudoeste 0 -- -- 81
2019-11-27 01:00:00 10.2 41 Sudoeste 66 Sudoeste 0 -- -- 83
2019-11-27 00:00:00 10.4 35 Sudoeste 54 Sudoeste 0 -- -- 87
2019-11-26 23:00:00 11 39 Sudoeste 55 Sudoeste 0.2 -- -- 87
2019-11-26 22:00:00 11.3 36 Sudoeste 62 Sudoeste 1.8 -- -- 89
2019-11-26 21:00:00 12.7 43 Sudoeste 75 Sudoeste 0 -- -- 79
2019-11-26 20:00:00 13 33 Sudoeste 57 Oeste 0 -- -- 85
2019-11-26 19:00:00 13.8 32 Sudoeste 68 Sudoeste 0 -- -- 86
2019-11-26 18:00:00 15 42 Sudoeste 67 Sudoeste 0 -- -- 79
2019-11-26 17:00:00 15.2 25 Sudoeste 46 Sudoeste 0 -- -- 77
2019-11-26 16:00:00 14.5 29 Sudoeste 52 Sudoeste 0 -- -- 84
2019-11-26 15:00:00 14.3 21 Sudoeste 45 Sudoeste 0 -- -- 89
2019-11-26 14:00:00 13.4 19 Sudoeste 40 Sudoeste 0 -- -- 94
2019-11-26 13:00:00 13.3 26 Sudoeste 42 Sudoeste 0 -- -- 89
2019-11-26 12:00:00 13.1 23 Sudoeste 37 Sudoeste 0.2 -- -- 91
2019-11-26 11:00:00 12.2 21 Sudoeste 41 Sudoeste 0.2 -- -- 96
2019-11-26 10:00:00 12.3 31 Sudoeste 43 Sudoeste 0 -- -- 91
2019-11-26 09:00:00 11.5 24 Sudoeste 42 Sudoeste 0 -- -- 91
2019-11-26 08:00:00 10.5 21 Sudoeste 37 Sudoeste 0 -- -- 92
2019-11-26 07:00:00 10.3 20 Sudoeste 42 Sudoeste 0 -- -- 92
2019-11-26 06:00:00 10.5 15 Sudoeste 32 Sudoeste 0 -- -- 88
2019-11-26 05:00:00 10.8 12 Sudoeste 31 Oeste 0 -- -- 87
2019-11-26 04:00:00 10.7 9 Oeste 24 Sudoeste 0 -- -- 88
2019-11-26 03:00:00 10.6 16 Sudoeste 37 Sudoeste 0 -- -- 87
2019-11-26 02:00:00 10.2 20 Sudoeste 37 Oeste 0 -- -- 87
2019-11-26 01:00:00 10.1 23 Oeste 39 Sudoeste 0 -- -- 86
2019-11-26 00:00:00 10.5 17 Sudoeste 29 Sudoeste 0 -- -- 85
2019-11-25 23:00:00 10.5 8 Sudoeste 17 Sudoeste 0 -- -- 86
2019-11-25 22:00:00 10.5 13 Sudoeste 30 Oeste 0 -- -- 85
2019-11-25 21:00:00 10.5 15 Sudoeste 30 Sudoeste 0 -- -- 84
2019-11-25 20:00:00 10.8 16 Sudoeste 30 Sudoeste 0 -- -- 84
2019-11-25 19:00:00 11.5 16 Sudoeste 26 Sudoeste 0 -- -- 81
2019-11-25 18:00:00 12.1 15 Sudoeste 27 Oeste 0 -- -- 74
2019-11-25 17:00:00 12.8 17 Sudoeste 29 Sudoeste 0 -- -- 71
2019-11-25 16:00:00 13.6 20 Oeste 37 Oeste 0 -- -- 69
2019-11-25 15:00:00 13.5 22 Sudoeste 37 Sudoeste 0 -- -- 73
2019-11-25 14:00:00 13.5 27 Sudoeste 40 Sudoeste 0 -- -- 73
2019-11-25 13:00:00 13 24 Oeste 37 Oeste 0 -- -- 80
2019-11-25 12:00:00 12.7 22 Oeste 36 Sudoeste 0 -- -- 82
2019-11-25 11:00:00 11.9 21 Sudoeste 36 Oeste 0 -- -- 87
2019-11-25 10:00:00 10.9 15 Sudoeste 33 Sudoeste 0 -- -- 91
2019-11-25 09:00:00 10.2 19 Sudoeste 34 Sudoeste 0 -- -- 92
2019-11-25 08:00:00 10.1 17 Sudoeste 31 Sudoeste 0 -- -- 92
2019-11-25 07:00:00 10.4 22 Sudoeste 44 Oeste 0 -- -- 92
2019-11-25 06:00:00 10 21 Sudoeste 35 Sudoeste 0 -- -- 93
2019-11-25 05:00:00 9.7 18 Sudoeste 35 Sudoeste 0 -- -- 94
2019-11-25 04:00:00 9 13 Sudoeste 29 Sudoeste 0 -- -- 97
2019-11-25 03:00:00 8.5 5 Sur 17 Sudoeste 0 -- -- 97
2019-11-25 02:00:00 8.5 7 Sudoeste 32 Sudoeste 0 -- -- 95
2019-11-25 01:00:00 8.6 9 Sudoeste 25 Sudoeste 0 -- -- 94
2019-11-25 00:00:00 8 16 Sudoeste 30 Sudoeste 0 -- -- 95
2019-11-24 23:00:00 8.4 10 Sudoeste 35 Sudoeste 0 -- -- 89
2019-11-24 22:00:00 7.9 18 Sudoeste 41 Sudoeste 0 -- -- 91
2019-11-24 21:00:00 7.6 22 Sudoeste 34 Sudoeste 0 -- -- 90
2019-11-24 20:00:00 7.5 17 Sudoeste 33 Sudoeste 0 -- -- 87
2019-11-24 19:00:00 7.6 15 Sudoeste 29 Sudoeste 0 -- -- 83
2019-11-24 18:00:00 7.7 18 Sudoeste 42 Sudoeste 0 -- -- 81
2019-11-24 17:00:00 7.9 20 Sudoeste 43 Sudoeste 0 -- -- 78
2019-11-24 16:00:00 8 27 Sudoeste 46 Oeste 0 -- -- 75
2019-11-24 15:00:00 8.3 17 Sudoeste 40 Sudoeste 0 -- -- 76
2019-11-24 14:00:00 8.8 23 Sudoeste 39 Sudoeste 0 -- -- 73
2019-11-24 13:00:00 7.8 16 Sudoeste 37 Sudoeste 0 -- -- 76
2019-11-24 12:00:00 6.8 17 Sudoeste 32 Sudoeste 0 -- -- 82
2019-11-24 11:00:00 5.6 3 Norte 29 Sudoeste 0 -- -- 88
2019-11-24 10:00:00 4.6 12 Sudoeste 22 Sudoeste 0 -- -- 89
2019-11-24 09:00:00 4 12 Sudoeste 27 Sur 0 -- -- 91
2019-11-24 08:00:00 3.3 10 Sur 22 Sudoeste 0 -- -- 93
2019-11-24 07:00:00 2.9 8 Sur 15 Sudoeste 0 -- -- 92
2019-11-24 06:00:00 3.7 9 Sudoeste 24 Oeste 0 -- -- 89
2019-11-24 05:00:00 4.2 13 Sudoeste 25 Sudoeste 0 -- -- 90
2019-11-24 04:00:00 4.5 14 Sudoeste 19 Sudoeste 0 -- -- 89
2019-11-24 03:00:00 4.6 11 Sudoeste 19 Sudoeste 0 -- -- 89
2019-11-24 02:00:00 4.8 13 Sudoeste 20 Sudoeste 0 -- -- 89
2019-11-24 01:00:00 4.7 9 Sur 14 Sur 0 -- -- 88
2019-11-24 00:00:00 5 0 Calma 15 Sudoeste 0 -- -- 89
2019-11-23 23:00:00 5.2 10 Sudoeste 20 Sudoeste 0 -- -- 87
2019-11-23 22:00:00 5.7 3 Sur 13 Sudoeste 0 -- -- 80
2019-11-23 21:00:00 5.6 4 Sudoeste 8 Sudoeste 0 -- -- 84
2019-11-23 20:00:00 5.6 0 Calma 3 Sudoeste 0 -- -- 89
2019-11-23 19:00:00 6.4 0 Calma 9 Noroeste 0 -- -- 88
2019-11-23 18:00:00 6.7 4 Oeste 15 Noroeste 0 -- -- 85
2019-11-23 17:00:00 7.2 9 Noroeste 24 Noroeste 0 -- -- 84
2019-11-23 16:00:00 8.6 15 Oeste 34 Oeste 0 -- -- 74
2019-11-23 15:00:00 8.6 20 Noroeste 36 Noroeste 0 -- -- 72
2019-11-23 14:00:00 8.9 17 Oeste 32 Oeste 0 -- -- 70
2019-11-23 13:00:00 8.5 17 Oeste 35 Oeste 0 -- -- 71
2019-11-23 12:00:00 7.3 24 Oeste 39 Oeste 0 -- -- 73
2019-11-23 11:00:00 5.7 17 Oeste 32 Sudoeste 0 -- -- 82
2019-11-23 10:00:00 5.2 22 Sudoeste 32 Sudoeste 0 -- -- 84
2019-11-23 09:00:00 4.8 22 Oeste 44 Sudoeste 0.2 -- -- 89
2019-11-23 08:00:00 4.9 30 Sudoeste 47 Oeste 0 -- -- 89
2019-11-23 07:00:00 5.1 29 Sudoeste 54 Sudoeste 0.4 -- -- 91
2019-11-23 06:00:00 5.4 27 Oeste 56 Oeste 0.2 -- -- 89
2019-11-23 05:00:00 6 30 Sudoeste 57 Sudoeste 0 -- -- 85
2019-11-23 04:00:00 6.4 37 Sudoeste 63 Sudoeste 0.2 -- -- 85
2019-11-23 03:00:00 7.1 37 Sudoeste 63 Sudoeste 0.2 -- -- 86
2019-11-23 02:00:00 7.9 37 Sudoeste 63 Sudoeste 0 -- -- 82
2019-11-23 01:00:00 8.1 32 Sudoeste 59 Sudoeste 0 -- -- 86
2019-11-23 00:00:00 8.4 34 Sudoeste 55 Sudoeste 0 -- -- 85
2019-11-22 23:00:00 8.2 27 Sudoeste 55 Sudoeste 0 -- -- 89
2019-11-22 22:00:00 8.1 25 Sudoeste 57 Sudoeste 0 -- -- 89
2019-11-22 21:00:00 8.1 29 Sudoeste 44 Sudoeste 0 -- -- 83
2019-11-22 20:00:00 8.8 28 Sudoeste 57 Oeste 0 -- -- 82
2019-11-22 19:00:00 10.2 33 Sudoeste 53 Sudoeste 0 -- -- 79
2019-11-22 18:00:00 10.6 23 Sudoeste 42 Sudoeste 0.2 -- -- 87
2019-11-22 17:00:00 10.9 19 Sudoeste 50 Sudoeste 0.2 -- -- 88
2019-11-22 16:00:00 12 27 Sudoeste 52 Sudoeste 0.2 -- -- 83
2019-11-22 15:00:00 11.2 12 Sudoeste 45 Sudoeste 0.8 -- -- 87
2019-11-22 14:00:00 10.9 34 Sudoeste 54 Sur 0.4 -- -- 84
2019-11-22 13:00:00 12.3 26 Sur 44 Sudoeste 0 -- -- 74
2019-11-22 12:00:00 8.6 18 Sudeste 32 Sudeste 0 -- -- 86
2019-11-22 11:00:00 7.8 14 Sudeste 29 Sudeste 0 -- -- 89
2019-11-22 10:00:00 7.9 14 Sur 33 Sur 0.4 -- -- 88
2019-11-22 09:00:00 6.6 12 Sur 24 Sur 0 -- -- 91
2019-11-22 08:00:00 6.2 4 Sur 11 Sudoeste 0 -- -- 90
2019-11-22 07:00:00 6.1 6 Sudoeste 17 Sur 0 -- -- 89
2019-11-22 06:00:00 6 5 Sur 14 Sudoeste 0 -- -- 90
2019-11-22 05:00:00 6 13 Sudoeste 27 Sudoeste 0.6 -- -- 92
2019-11-22 04:00:00 6.2 8 Sudoeste 35 Sudoeste 0 -- -- 91
2019-11-22 03:00:00 6.7 26 Sudoeste 39 Sudoeste 0 -- -- 86
2019-11-22 02:00:00 5.3 6 Sur 10 Sur 0 -- -- 85
2019-11-22 01:00:00 4 0 Calma 14 Sudoeste 0 -- -- 92
2019-11-22 00:00:00 4.6 5 Sur 11 Sur 0 -- -- 89
2019-11-21 23:00:00 4.5 7 Sur 15 Sur 0 -- -- 89
2019-11-21 22:00:00 3.8 7 Sudoeste 14 Sur 0 -- -- 90
2019-11-21 21:00:00 4.3 9 Sur 14 Sur 0 -- -- 84
2019-11-21 20:00:00 4.7 6 Sur 16 Sur 0 -- -- 81
2019-11-21 19:00:00 5.4 3 Sudoeste 12 Sudoeste 0 -- -- 78
2019-11-21 18:00:00 7.3 8 Sudoeste 21 Oeste 0 -- -- 67
2019-11-21 17:00:00 9.2 15 Sudoeste 40 Sudoeste 0 -- -- 62
2019-11-21 16:00:00 9.9 24 Sudoeste 38 Sudoeste 0 -- -- 64
2019-11-21 15:00:00 10.1 23 Sudoeste 38 Sudoeste 0 -- -- 68
2019-11-21 14:00:00 9.8 19 Oeste 37 Oeste 0 -- -- 76
2019-11-21 13:00:00 7.8 21 Oeste 35 Sudoeste 0 -- -- 83
2019-11-21 12:00:00 7.6 19 Sudoeste 41 Sudoeste 0.2 -- -- 87
2019-11-21 11:00:00 7.1 23 Sudoeste 38 Sudoeste 0 -- -- 88
2019-11-21 10:00:00 6.4 12 Sudoeste 29 Sudoeste 0 -- -- 89
2019-11-21 09:00:00 5.9 12 Sudoeste 22 Oeste 0 -- -- 92
2019-11-21 08:00:00 -- -- -- -- -- -- -- -- --
2019-11-21 07:00:00 -- -- -- -- -- -- -- -- --
2019-11-21 06:00:00 -- -- -- -- -- -- -- -- --
2019-11-21 05:00:00 -- -- -- -- -- -- -- -- --
2019-11-21 04:00:00 -- -- -- -- -- -- -- -- --
2019-11-21 03:00:00 -- -- -- -- -- -- -- -- --
2019-11-21 02:00:00 -- -- -- -- -- -- -- -- --
2019-11-21 01:00:00 -- -- -- -- -- -- -- -- --
2019-11-21 00:00:00 -- -- -- -- -- -- -- -- --
2019-11-20 23:00:00 -- -- -- -- -- -- -- -- --
2019-11-20 22:00:00 -- -- -- -- -- -- -- -- --
2019-11-20 21:00:00 -- -- -- -- -- -- -- -- --
2019-11-20 20:00:00 -- -- -- -- -- -- -- -- --
2019-11-20 19:00:00 4 11 Sudeste 20 Sudeste 0 -- -- 96
2019-11-20 18:00:00 4 14 Sudeste 26 Sudeste 0 -- -- 96
2019-11-20 17:00:00 3.4 16 Sudeste 29 Sudeste 0 -- -- 96
2019-11-20 16:00:00 3.7 14 Sudeste 28 Sudeste 0 -- -- 94
2019-11-20 15:00:00 3.5 19 Sudeste 29 Sudeste 0 -- -- 94
2019-11-20 14:00:00 3.7 17 Sudeste 25 Sudeste 0 -- -- 94
2019-11-20 13:00:00 3.3 15 Sudeste 23 Sudeste 0 -- -- 96
2019-11-20 12:00:00 2.5 14 Sudeste 21 Sudeste 0 -- -- 98
2019-11-20 11:00:00 2.1 14 Sudeste 26 Sudeste 0 -- -- 100
2019-11-20 10:00:00 1.1 16 Sudeste 25 Sudeste 0 -- -- 100
2019-11-20 09:00:00 1 14 Sudeste 24 Este 0 -- -- 99
2019-11-20 08:00:00 1.7 13 Sudeste 22 Este 0 -- -- 94
2019-11-20 07:00:00 2.4 7 Sudeste 12 Sudeste 0 -- -- 92
2019-11-20 06:00:00 2.3 5 Este 6 Este 0 -- -- 95
2019-11-20 05:00:00 2.1 3 Este 8 Este 0 -- -- 94
2019-11-20 04:00:00 1.3 0 Calma 9 Norte 0 -- -- 95
2019-11-20 03:00:00 0.8 0 Calma 8 Nordeste 0 -- -- 96
2019-11-20 02:00:00 1.1 2 Nordeste 6 Nordeste 0 -- -- 96
2019-11-20 01:00:00 1.7 0 Calma 16 Sudoeste 0 -- -- 92
2019-11-20 00:00:00 1.9 0 Calma 12 Sur 0 -- -- 92
2019-11-19 23:00:00 3.5 2 Oeste 15 Sudoeste 0 -- -- 88
2019-11-19 22:00:00 2.9 4 Oeste 8 Sudoeste 0 -- -- 94
2019-11-19 21:00:00 3.3 3 Sudoeste 8 Sudoeste 0 -- -- 91
2019-11-19 20:00:00 4.1 6 Sudoeste 13 Sudoeste 0 -- -- 89
2019-11-19 19:00:00 3.5 0 Calma 8 Sudoeste 0 -- -- 91
2019-11-19 18:00:00 5.2 5 Sudoeste 22 Oeste 0 -- -- 84
2019-11-19 17:00:00 6.4 13 Oeste 28 Sudoeste 0 -- -- 79
2019-11-19 16:00:00 7.4 12 Oeste 28 Oeste 0 -- -- 76
2019-11-19 15:00:00 7.8 18 Oeste 30 Oeste 0 -- -- 72
2019-11-19 14:00:00 8.5 17 Oeste 28 Oeste 0 -- -- 68
2019-11-19 13:00:00 5.7 3 Norte 10 Noroeste 0 -- -- 88
2019-11-19 12:00:00 4.7 6 Norte 10 Norte 0 -- -- 90
2019-11-19 11:00:00 3.7 3 Norte 5 Norte 0 -- -- 90
2019-11-19 10:00:00 2.5 3 Sur 10 Sur 0 -- -- 94
2019-11-19 09:00:00 0 6 Sur 11 Sur 0 -- -- 99
2019-11-19 08:00:00 -0.2 5 Sur 9 Sur 0 -- -- 98
2019-11-19 07:00:00 0.3 6 Sur 10 Sur 0 -- -- 98
2019-11-19 06:00:00 0.3 6 Sur 14 Sur 0 -- -- 98
2019-11-19 05:00:00 0.3 6 Sudoeste 13 Sudeste 0 -- -- 97
2019-11-19 04:00:00 1.1 5 Sur 11 Sur 0 -- -- 96
2019-11-19 03:00:00 1.2 4 Sudoeste 10 Sudeste 0 -- -- 95
2019-11-19 02:00:00 1.7 4 Sur 8 Sudoeste 0 -- -- 96
2019-11-19 01:00:00 2.7 5 Sur 11 Sur 0 -- -- 94
2019-11-19 00:00:00 2.9 6 Sur 10 Sur 0 -- -- 94
2019-11-18 23:00:00 2.8 5 Sur 10 Sur 0 -- -- 94
2019-11-18 22:00:00 2.6 4 Sudoeste 6 Sudoeste 0 -- -- 97
2019-11-18 21:00:00 2.4 0 Calma 8 Oeste 0 -- -- 92
2019-11-18 20:00:00 3.8 3 Oeste 12 Noroeste 0 -- -- 91
2019-11-18 19:00:00 4.7 7 Norte 13 Noroeste 0 -- -- 87
2019-11-18 18:00:00 5.4 7 Noroeste 16 Norte 0 -- -- 84
2019-11-18 17:00:00 5.8 8 Norte 19 Noroeste 0 -- -- 80
2019-11-18 16:00:00 6.5 10 Norte 18 Noroeste 0 -- -- 77
2019-11-18 15:00:00 6.6 11 Norte 31 Norte 0 -- -- 82
2019-11-18 14:00:00 6.4 12 Norte 24 Norte 0 -- -- 83
2019-11-18 13:00:00 6.3 8 Norte 24 Noroeste 0 -- -- 78
2019-11-18 12:00:00 5.9 9 Noroeste 19 Oeste 0 -- -- 81
2019-11-18 11:00:00 5.6 8 Noroeste 19 Oeste 0 -- -- 87
2019-11-18 10:00:00 4.3 8 Oeste 16 Oeste 0 -- -- 91
2019-11-18 09:00:00 4.1 8 Noroeste 15 Oeste 0 -- -- 90
2019-11-18 08:00:00 3.8 5 Noroeste 10 Noroeste 0 -- -- 91
2019-11-18 07:00:00 3.5 5 Sudoeste 10 Sudoeste 0 -- -- 95
2019-11-18 06:00:00 3.1 6 Sudoeste 11 Sudoeste 0 -- -- 96
2019-11-18 05:00:00 3.2 3 Sudoeste 6 Oeste 0 -- -- 97
2019-11-18 04:00:00 3 2 Oeste 8 Oeste 0.2 -- -- 97
2019-11-18 03:00:00 2.5 0 Calma 9 Noroeste 0 -- -- 96
2019-11-18 02:00:00 3 6 Noroeste 18 Noroeste 0 -- -- 94
2019-11-18 01:00:00 3.6 9 Noroeste 21 Noroeste 0 -- -- 91
2019-11-18 00:00:00 4.2 13 Noroeste 27 Noroeste 0 -- -- 89
2019-11-17 23:00:00 4.5 10 Noroeste 22 Noroeste 0.2 -- -- 92
2019-11-17 22:00:00 4 0 Calma 5 Oeste 0.6 -- -- 100
2019-11-17 21:00:00 3.7 0 Calma 6 Sur 0 -- -- 100
2019-11-17 20:00:00 3.9 5 Sudoeste 7 Sudoeste 0 -- -- 98
2019-11-17 19:00:00 4.7 3 Nordeste 9 Sudoeste 0 -- -- 97
2019-11-17 18:00:00 5.5 0 Calma 2 Nordeste 0 -- -- 95
2019-11-17 17:00:00 6 0 Calma 5 Norte 0 -- -- 96
2019-11-17 16:00:00 5.8 2 Norte 11 Norte 0 -- -- 99
2019-11-17 15:00:00 6.1 2 Sudoeste 18 Oeste 0 -- -- 96
2019-11-17 14:00:00 6.2 13 Oeste 31 Oeste 0 -- -- 91
2019-11-17 13:00:00 6.4 9 Oeste 39 Sudoeste 0 -- -- 90
2019-11-17 12:00:00 5.3 14 Oeste 32 Oeste 0 -- -- 93
2019-11-17 11:00:00 4.6 3 Nordeste 13 Noroeste 0 -- -- 92
2019-11-17 10:00:00 4.3 6 Oeste 19 Noroeste 0 -- -- 93
2019-11-17 09:00:00 3.9 10 Sudoeste 27 Sudoeste 0 -- -- 94
2019-11-17 08:00:00 3.9 12 Sudoeste 24 Oeste 0 -- -- 91
2019-11-17 07:00:00 3.9 9 Sudoeste 19 Sudoeste 0 -- -- 89
2019-11-17 06:00:00 3.6 14 Oeste 26 Sudoeste 0 -- -- 88
2019-11-17 05:00:00 3.5 15 Oeste 27 Sudoeste 0 -- -- 85
2019-11-17 04:00:00 3.4 8 Sudoeste 19 Sudoeste 0 -- -- 83
2019-11-17 03:00:00 3.3 10 Sudoeste 16 Sudoeste 0 -- -- 86
2019-11-17 02:00:00 2.6 14 Sudoeste 23 Sudoeste 0 -- -- 87
2019-11-17 01:00:00 2.5 10 Sudoeste 23 Sudoeste 0 -- -- 85
2019-11-17 00:00:00 2.7 8 Sur 17 Sudoeste 0 -- -- 84
2019-11-16 23:00:00 3 9 Sudoeste 15 Sudoeste 0 -- -- 85
2019-11-16 22:00:00 3.5 4 Sudeste 15 Noroeste 0 -- -- 84
2019-11-16 21:00:00 3 3 Oeste 9 Sudoeste 0 -- -- 86
2019-11-16 20:00:00 4.4 6 Oeste 14 Oeste 0 -- -- 79
2019-11-16 19:00:00 4.8 4 Sudoeste 9 Oeste 0 -- -- 84
2019-11-16 18:00:00 5.8 4 Oeste 17 Oeste 0 -- -- 79
2019-11-16 17:00:00 6.8 9 Oeste 30 Oeste 0 -- -- 73
2019-11-16 16:00:00 7.3 12 Oeste 22 Oeste 0 -- -- 73
2019-11-16 15:00:00 6.4 13 Sudoeste 20 Sudoeste 0 -- -- 81
2019-11-16 14:00:00 4.6 6 Noroeste 28 Sudoeste 0 -- -- 83
2019-11-16 13:00:00 3.7 12 Sudoeste 28 Sudoeste 0 -- -- 88
2019-11-16 12:00:00 3.4 12 Oeste 21 Sudoeste 0 -- -- 87
2019-11-16 11:00:00 2.3 5 Sudoeste 31 Oeste 0 -- -- 91
2019-11-16 10:00:00 1.2 19 Sudoeste 36 Sudoeste 0 -- -- 96
2019-11-16 09:00:00 1.3 12 Sudoeste 22 Sudoeste 0 -- -- 93
2019-11-16 08:00:00 0.9 11 Sudoeste 19 Sudoeste 0 -- -- 95
2019-11-16 07:00:00 0.9 12 Sudoeste 20 Sudoeste 0.2 -- -- 96
2019-11-16 06:00:00 1.1 11 Sudoeste 15 Sudoeste 0 -- -- 97
2019-11-16 05:00:00 0.4 9 Sudoeste 15 Sudoeste 0 -- -- 98
2019-11-16 04:00:00 0.5 8 Sudoeste 12 Sudoeste 0 -- -- 98
2019-11-16 03:00:00 0.4 4 Sudoeste 8 Sudoeste 0 -- -- 99
2019-11-16 02:00:00 0.4 5 Sur 8 Sur 0 -- -- 100
2019-11-16 01:00:00 0.5 0 Calma 6 Sudeste 0 -- -- 99
2019-11-16 00:00:00 0.9 0 Calma 9 Oeste 0 -- -- 99
2019-11-15 23:00:00 1.5 3 Sudoeste 8 Noroeste 0.4 -- -- 100
2019-11-15 22:00:00 1.6 5 Noroeste 12 Noroeste 0.8 -- -- 100
2019-11-15 21:00:00 1.6 2 Noroeste 6 Norte 0.6 -- -- 99
2019-11-15 20:00:00 1.8 0 Calma 8 Noroeste 0.6 -- -- 99
2019-11-15 19:00:00 2.3 5 Noroeste 10 Noroeste 1.4 -- -- 97
2019-11-15 18:00:00 2.8 3 Noroeste 12 Norte 0.4 -- -- 98
2019-11-15 17:00:00 3.3 6 Noroeste 11 Noroeste 0.2 -- -- 97
2019-11-15 16:00:00 3.1 5 Oeste 18 Oeste 0.8 -- -- 96
2019-11-15 15:00:00 3.1 10 Oeste 23 Oeste 1 -- -- 95
2019-11-15 14:00:00 3.3 18 Oeste 30 Oeste 0 -- -- 93
2019-11-15 13:00:00 2.8 14 Oeste 28 Oeste 1.2 -- -- 95
2019-11-15 12:00:00 1.6 17 Sudoeste 28 Sudoeste 3 -- -- 99
2019-11-15 11:00:00 2.1 17 Oeste 31 Oeste 2.4 -- -- 94
2019-11-15 10:00:00 1.9 13 Sudoeste 37 Oeste 1.4 -- -- 97
2019-11-15 09:00:00 2.6 19 Sudoeste 35 Oeste 0.6 -- -- 94
2019-11-15 08:00:00 2 18 Sudoeste 36 Oeste 1 -- -- 96
2019-11-15 07:00:00 2.1 16 Sudoeste 32 Sudoeste 1.2 -- -- 96
2019-11-15 06:00:00 2.2 17 Sudoeste 32 Sudoeste 1.4 -- -- 94
2019-11-15 05:00:00 0.9 13 Sudoeste 20 Sudoeste 0.6 -- -- 99
2019-11-15 04:00:00 1.7 10 Oeste 24 Sudoeste 0.2 -- -- 94
2019-11-15 03:00:00 1.5 17 Sudoeste 30 Sudoeste 0 -- -- 94
2019-11-15 02:00:00 1.2 12 Sudoeste 20 Sudoeste 0 -- -- 94
2019-11-15 01:00:00 1 8 Sudoeste 13 Sur 0 -- -- 93
2019-11-15 00:00:00 1.8 5 Oeste 12 Oeste 0 -- -- 91
2019-11-14 23:00:00 2.8 5 Oeste 19 Oeste 0 -- -- 92
2019-11-14 22:00:00 3.1 12 Noroeste 21 Oeste 0 -- -- 91
2019-11-14 21:00:00 2.9 3 Noroeste 23 Noroeste 0.2 -- -- 96
2019-11-14 20:00:00 3.6 8 Oeste 16 Oeste 0 -- -- 92
2019-11-14 19:00:00 3.4 4 Sudoeste 14 Sudoeste 0 -- -- 95
2019-11-14 18:00:00 3.5 9 Sudoeste 16 Oeste 0.2 -- -- 92
2019-11-14 17:00:00 3.7 10 Sudoeste 27 Sudoeste 0 -- -- 92
2019-11-14 16:00:00 3.4 15 Sudoeste 46 Sudoeste 0.2 -- -- 91
2019-11-14 15:00:00 6.2 21 Oeste 51 Oeste 0 -- -- 69
2019-11-14 14:00:00 6.2 30 Sudoeste 58 Sudoeste 0 -- -- 65
2019-11-14 13:00:00 6.1 32 Sudoeste 66 Sudoeste 0 -- -- 70
2019-11-14 12:00:00 4.9 36 Sudoeste 55 Sudoeste 0.2 -- -- 77
2019-11-14 11:00:00 4.8 24 Sudoeste 40 Sudoeste 0 -- -- 80
2019-11-14 10:00:00 3.9 10 Sur 18 Sur 1 -- -- 91
2019-11-14 09:00:00 2.1 3 Sur 10 Sur 0.6 -- -- 98
2019-11-14 08:00:00 1.8 9 Sudoeste 16 Sudoeste 0.4 -- -- 99
2019-11-14 07:00:00 1.4 8 Sur 13 Sudoeste 0.6 -- -- 99
2019-11-14 06:00:00 1.2 8 Sur 14 Sudeste 1.2 -- -- 99
2019-11-14 05:00:00 1.1 4 Oeste 8 Oeste 2.2 -- -- 99
2019-11-14 04:00:00 1.4 10 Oeste 54 Oeste 1 -- -- 97
2019-11-14 03:00:00 6.8 35 Sudoeste 64 Sudoeste 0.2 -- -- 90
2019-11-14 02:00:00 7.4 36 Sudoeste 54 Sudoeste 0 -- -- 81
2019-11-14 01:00:00 7.5 29 Sudoeste 51 Sudoeste 0 -- -- 83
2019-11-14 00:00:00 8.3 38 Sudoeste 58 Sudoeste 0 -- -- 74
2019-11-13 23:00:00 8.8 35 Oeste 55 Sudoeste 0 -- -- 70
2019-11-13 22:00:00 9.4 29 Sudoeste 46 Sudoeste 0 -- -- 74
2019-11-13 21:00:00 10.3 19 Sudoeste 35 Sudoeste 0 -- -- 80
2019-11-13 20:00:00 9.9 17 Sudoeste 28 Sudoeste 0 -- -- 81
2019-11-13 19:00:00 9.8 17 Sudoeste 25 Sudoeste 0 -- -- 80
2019-11-13 18:00:00 10.3 17 Sudoeste 26 Sudoeste 0 -- -- 76
2019-11-13 17:00:00 10.3 0 Calma 9 Noroeste 0 -- -- 78
2019-11-13 16:00:00 10.3 6 Noroeste 19 Norte 0 -- -- 77
2019-11-13 15:00:00 10.5 13 Norte 21 Norte 0 -- -- 81
2019-11-13 14:00:00 10.2 14 Noroeste 21 Noroeste 0 -- -- 77
2019-11-13 13:00:00 10.3 9 Noroeste 15 Norte 0 -- -- 77
2019-11-13 12:00:00 9.4 7 Noroeste 15 Noroeste 0 -- -- 79
2019-11-13 11:00:00 9.2 6 Norte 15 Noroeste 0 -- -- 84
2019-11-13 10:00:00 7.8 5 Noroeste 11 Oeste 0 -- -- 90
2019-11-13 09:00:00 7 8 Noroeste 18 Norte 0 -- -- 93
2019-11-13 08:00:00 6.8 6 Noroeste 13 Noroeste 0.2 -- -- 97
2019-11-13 07:00:00 6.7 6 Noroeste 13 Noroeste 0 -- -- 97
2019-11-13 06:00:00 7.1 6 Norte 18 Norte 0 -- -- 93
2019-11-13 05:00:00 7.4 10 Norte 22 Norte 1.8 -- -- 97
2019-11-13 04:00:00 7.8 4 Norte 7 Norte 1.8 -- -- 100
2019-11-13 03:00:00 7.9 0 Calma 4 Norte 2 -- -- 99
2019-11-13 02:00:00 8 0 Calma 10 Sudoeste 0.4 -- -- 98
2019-11-13 01:00:00 7.9 5 Sur 8 Sur 1 -- -- 98
2019-11-13 00:00:00 7.8 4 Sudoeste 15 Sudoeste 0 -- -- 96
2019-11-12 23:00:00 7.6 7 Sudoeste 20 Sudoeste 0 -- -- 95
2019-11-12 22:00:00 7.3 11 Sudoeste 22 Sudoeste 0.2 -- -- 95
2019-11-12 21:00:00 6.8 13 Sudoeste 31 Sudoeste 0.2 -- -- 93
2019-11-12 20:00:00 6.8 13 Sudoeste 23 Sudoeste 0.4 -- -- 90
2019-11-12 19:00:00 7.2 12 Sudoeste 24 Sudoeste 0.6 -- -- 92
2019-11-12 18:00:00 7.6 14 Sudoeste 27 Sudoeste 0.6 -- -- 88
2019-11-12 17:00:00 9 19 Sudoeste 32 Sudoeste 0.2 -- -- 79
2019-11-12 16:00:00 10 23 Sudoeste 36 Sudoeste 0 -- -- 70
2019-11-12 15:00:00 10.5 19 Oeste 35 Oeste 0 -- -- 70
2019-11-12 14:00:00 9.7 20 Oeste 31 Oeste 0 -- -- 72
2019-11-12 13:00:00 8.5 14 Oeste 24 Oeste 0 -- -- 77
2019-11-12 12:00:00 8.1 17 Sudoeste 23 Sudoeste 0 -- -- 77
2019-11-12 11:00:00 7.3 10 Oeste 22 Sudoeste 0 -- -- 79
2019-11-12 10:00:00 5.3 15 Sudoeste 22 Sudoeste 0 -- -- 90
2019-11-12 09:00:00 4.5 13 Sudoeste 19 Sudoeste 0 -- -- 93
2019-11-12 08:00:00 4.4 6 Sudoeste 19 Sudoeste 0 -- -- 91
2019-11-12 07:00:00 4.5 3 Oeste 14 Sudoeste 0 -- -- 90
2019-11-12 06:00:00 4.6 8 Sudoeste 15 Sudoeste 0 -- -- 91
2019-11-12 05:00:00 4.5 9 Sudoeste 13 Sudoeste 0 -- -- 91
2019-11-12 04:00:00 5 9 Sudoeste 14 Oeste 0 -- -- 90
2019-11-12 03:00:00 4.7 2 Oeste 8 Sudoeste 0 -- -- 94
2019-11-12 02:00:00 4.4 6 Sudoeste 9 Sudoeste 0 -- -- 95
2019-11-12 01:00:00 4.1 6 Sur 10 Sur 0 -- -- 96
2019-11-12 00:00:00 4.2 5 Sur 9 Sur 0 -- -- 95